createdAt,value
2019-04-29T00:02:21.698Z,142464.50
2019-04-29T00:07:18.019Z,142436.47
2019-04-29T00:12:16.415Z,142427.17
2019-04-29T00:17:14.423Z,142461.00
2019-04-29T00:22:10.974Z,142436.47
2019-04-29T00:27:07.054Z,142382.77
2019-04-29T00:32:04.188Z,142365.28
2019-04-29T00:37:08.218Z,142341.91
2019-04-29T00:42:15.002Z,142322.09
2019-04-29T00:47:11.602Z,142324.44
2019-04-29T00:52:07.824Z,142301.06
2019-04-29T00:57:04.445Z,142289.37
2019-04-29T01:02:00.726Z,142289.37
2019-04-29T01:06:57.087Z,142289.37
2019-04-29T01:11:53.424Z,142267.20
2019-04-29T01:16:49.595Z,142235.70
2019-04-29T01:21:46.013Z,142207.69
2019-04-29T01:26:46.690Z,142199.56
2019-04-29T01:31:42.877Z,142212.39
2019-04-29T01:36:41.245Z,142247.39
2019-04-29T01:41:54.423Z,142186.69
2019-04-29T01:46:51.045Z,142413.14
2019-04-29T01:51:47.044Z,142296.42
2019-04-29T01:56:43.147Z,142224.03
2019-04-29T02:01:39.264Z,142190.22
2019-04-29T02:06:35.546Z,142186.69
2019-04-29T02:11:31.585Z,142170.36
2019-04-29T02:16:28.026Z,142135.38
2019-04-29T02:21:24.408Z,142215.88
2019-04-29T02:26:20.664Z,142134.22
2019-04-29T02:31:35.233Z,142095.70
2019-04-29T02:36:31.377Z,142207.69
2019-04-29T02:41:29.343Z,142284.73
2019-04-29T02:46:25.533Z,142285.88
2019-04-29T02:51:40.800Z,142212.39
2019-04-29T02:56:37.404Z,142123.70
2019-04-29T03:01:44.519Z,142116.72
2019-04-29T03:06:40.963Z,142113.22
2019-04-29T03:11:37.293Z,142163.37
2019-04-29T03:16:33.576Z,142116.72
2019-04-29T03:21:37.333Z,142079.39
2019-04-29T03:26:33.826Z,142063.06
2019-04-29T03:31:29.956Z,142050.25
2019-04-29T03:36:26.109Z,142051.39
2019-04-29T03:41:22.477Z,142079.39
2019-04-29T03:46:18.510Z,142135.38
2019-04-29T03:51:15.141Z,142075.89
2019-04-29T03:56:11.346Z,142060.72
2019-04-29T04:01:21.069Z,142091.06
2019-04-29T04:06:19.144Z,142088.72
2019-04-29T04:11:15.299Z,142100.39
2019-04-29T04:16:13.578Z,142114.36
2019-04-29T04:21:10.250Z,142154.03
2019-04-29T04:26:06.473Z,142255.56
2019-04-29T04:31:06.473Z,142198.36
2019-04-29T04:36:00.805Z,142143.56
2019-04-29T04:41:00.037Z,142137.72
2019-04-29T04:45:56.255Z,142154.03
2019-04-29T04:50:53.758Z,142201.86
2019-04-29T04:55:51.751Z,142221.72
2019-04-29T05:00:47.986Z,142303.41
2019-04-29T05:05:44.217Z,142366.44
2019-04-29T05:10:40.417Z,142387.47
2019-04-29T05:15:36.829Z,142422.48
2019-04-29T05:20:37.599Z,142525.27
2019-04-29T05:25:33.993Z,142649.14
2019-04-29T05:30:30.205Z,142756.70
2019-04-29T05:35:31.571Z,142923.92
2019-04-29T05:40:41.652Z,143074.91
2019-04-29T05:45:46.161Z,143120.53
2019-04-29T05:50:47.583Z,143138.11
2019-04-29T05:55:41.872Z,143160.34
2019-04-29T06:00:39.326Z,143066.69
2019-04-29T06:05:35.369Z,143023.39
2019-04-29T06:10:31.494Z,143062.03
2019-04-29T06:15:27.693Z,143146.33
2019-04-29T06:20:50.219Z,143262.25
2019-04-29T06:25:46.374Z,143309.16
2019-04-29T06:30:45.249Z,143346.59
2019-04-29T06:35:43.309Z,143223.58
2019-04-29T06:40:38.216Z,143270.42
2019-04-29T06:45:34.353Z,143175.58
2019-04-29T06:50:38.076Z,143236.45
2019-04-29T06:55:34.253Z,143398.19
2019-04-29T07:00:30.210Z,143285.66
2019-04-29T07:05:26.369Z,143370.06
2019-04-29T07:10:26.874Z,143432.17
2019-04-29T07:15:20.740Z,143593.92
2019-04-29T07:20:18.443Z,143646.70
2019-04-29T07:25:14.830Z,143735.92
2019-04-29T07:30:10.902Z,143771.11
2019-04-29T07:35:09.921Z,143975.33
2019-04-29T07:40:08.053Z,143911.94
2019-04-29T07:45:19.477Z,143923.69
2019-04-29T07:50:17.401Z,143937.77
2019-04-29T07:55:13.578Z,143841.50
2019-04-29T08:00:13.046Z,143747.63
2019-04-29T08:05:10.221Z,143953.03
2019-04-29T08:10:22.803Z,144015.27
2019-04-29T08:15:07.738Z,144073.97
2019-04-29T08:20:05.158Z,144098.67
2019-04-29T08:25:04.222Z,144153.91
2019-04-29T08:30:00.335Z,144081.03
2019-04-29T08:34:58.315Z,144229.11
2019-04-29T08:40:14.714Z,144158.59
2019-04-29T08:50:08.379Z,144191.50
2019-04-29T08:55:04.817Z,144153.91
2019-04-29T09:00:00.751Z,144156.28
2019-04-29T09:04:56.679Z,144146.87
2019-04-29T09:09:56.004Z,144196.19
2019-04-29T09:14:50.420Z,144226.75
2019-04-29T09:19:46.338Z,144230.27
2019-04-29T09:24:48.247Z,144316.05
2019-04-29T09:29:41.981Z,144301.97
2019-04-29T09:34:37.904Z,144289.05
2019-04-29T09:39:42.819Z,144327.81
2019-04-29T09:44:44.995Z,144370.16
2019-04-29T09:49:41.042Z,144327.81
2019-04-29T09:54:36.954Z,144398.37
2019-04-29T09:59:40.820Z,144339.59
2019-04-29T10:04:38.753Z,144290.20
2019-04-29T10:09:34.685Z,144307.86
2019-04-29T10:14:30.704Z,144391.30
2019-04-29T10:19:31.382Z,144391.30
2019-04-29T10:24:27.423Z,144385.41
2019-04-29T10:29:28.043Z,144437.22
2019-04-29T10:34:26.891Z,144673.67
2019-04-29T10:39:24.287Z,144450.16
2019-04-29T10:44:22.146Z,144496.03
2019-04-29T10:49:22.732Z,144572.48
2019-04-29T10:54:18.649Z,144648.95
2019-04-29T10:59:14.674Z,144588.94
2019-04-29T11:04:10.910Z,144537.20
2019-04-29T11:09:14.323Z,144484.27
2019-04-29T11:14:10.720Z,144504.23
2019-04-29T11:19:06.641Z,144447.78
2019-04-29T11:24:04.647Z,144477.22
2019-04-29T11:29:00.825Z,144548.94
2019-04-29T11:34:11.653Z,144504.23
2019-04-29T11:39:09.115Z,144546.61
2019-04-29T11:44:06.545Z,144425.44
2019-04-29T11:49:04.461Z,144513.66
2019-04-29T11:54:01.339Z,144520.75
2019-04-29T11:58:59.286Z,144501.92
2019-04-29T12:03:58.333Z,144364.28
2019-04-29T12:08:55.224Z,144203.28
2019-04-29T12:14:08.284Z,144273.75
2019-04-29T12:24:23.477Z,144153.91
2019-04-29T12:29:19.665Z,144186.78
2019-04-29T12:34:30.451Z,144149.19
2019-04-29T12:39:42.808Z,144111.59
2019-04-29T12:44:34.956Z,144130.39
2019-04-29T12:49:27.098Z,144142.16
2019-04-29T12:54:24.017Z,144099.88
2019-04-29T12:59:30.657Z,144102.19
2019-04-29T13:04:45.012Z,144048.13
2019-04-29T13:09:43.956Z,144085.72
2019-04-29T13:14:42.621Z,144010.55
2019-04-29T13:20:07.404Z,143996.48
2019-04-29T13:25:05.504Z,144034.06
2019-04-29T13:30:15.189Z,144003.52
2019-04-29T13:35:12.334Z,144007.03
2019-04-29T13:40:09.386Z,143980.00
2019-04-29T13:45:12.517Z,143997.64
2019-04-29T13:50:18.929Z,143965.94
2019-04-29T13:55:17.705Z,143965.94
2019-04-29T14:00:14.306Z,143961.22
2019-04-29T14:05:15.146Z,143937.77
2019-04-29T14:10:14.974Z,143910.75
2019-04-29T14:15:11.270Z,143916.63
2019-04-29T14:20:10.895Z,143900.19
2019-04-29T14:25:08.192Z,143896.69
2019-04-29T14:30:09.127Z,143914.31
2019-04-29T14:35:19.693Z,143904.91
2019-04-29T14:40:15.745Z,143890.81
2019-04-29T14:45:30.501Z,143933.03
2019-04-29T14:50:28.015Z,143942.44
2019-04-29T14:55:25.210Z,143916.63
2019-04-29T15:00:30.033Z,143908.44
2019-04-29T15:05:28.228Z,143916.63
2019-04-29T15:10:26.697Z,143954.19
2019-04-29T15:15:40.557Z,143956.55
2019-04-29T15:20:45.132Z,143969.45
2019-04-29T15:25:41.177Z,143942.44
2019-04-29T15:30:38.633Z,143947.16
2019-04-29T15:35:34.898Z,143949.52
2019-04-29T15:40:30.853Z,143971.81
2019-04-29T15:45:28.102Z,143980.00
2019-04-29T15:50:32.665Z,143977.69
2019-04-29T15:55:28.510Z,143970.61
2019-04-29T16:00:25.507Z,144005.88
2019-04-29T16:05:56.109Z,144005.88
2019-04-29T16:10:41.679Z,144005.88
2019-04-29T16:15:37.584Z,144032.86
2019-04-29T16:20:39.912Z,144069.28
2019-04-29T16:25:40.500Z,144039.94
2019-04-29T16:30:34.022Z,144034.06
2019-04-29T16:35:34.635Z,144031.70
2019-04-29T16:40:33.781Z,144021.16
2019-04-29T16:45:30.518Z,144019.94
2019-04-29T16:50:38.134Z,144012.91
2019-04-29T16:55:35.872Z,144011.75
2019-04-29T17:00:35.104Z,143996.48
2019-04-29T17:05:31.145Z,143977.69
2019-04-29T17:10:45.944Z,143967.09
2019-04-29T17:15:44.487Z,143955.39
2019-04-29T17:20:42.384Z,143934.25
2019-04-29T17:25:40.313Z,143943.64
2019-04-29T17:30:58.474Z,143911.94
2019-04-29T17:35:58.411Z,143903.72
2019-04-29T17:40:54.448Z,143906.06
2019-04-29T17:46:01.409Z,143918.98
2019-04-29T17:51:05.356Z,143918.98
2019-04-29T17:56:21.035Z,143943.64
2019-04-29T18:01:19.246Z,143953.03
2019-04-29T18:06:24.313Z,143940.13
2019-04-29T18:11:21.234Z,143942.44
2019-04-29T18:16:25.752Z,143938.92
2019-04-29T18:21:28.347Z,143916.63
2019-04-29T18:26:26.186Z,143907.22
2019-04-29T18:31:22.252Z,143907.22
2019-04-29T18:36:24.130Z,143889.66
2019-04-29T18:41:24.634Z,143893.16
2019-04-29T18:46:19.616Z,143882.56
2019-04-29T18:51:25.660Z,143867.34
2019-04-29T18:56:21.308Z,143881.41
2019-04-29T19:01:24.053Z,143882.56
2019-04-29T19:06:21.371Z,143875.53
2019-04-29T19:11:29.913Z,143873.19
2019-04-29T19:16:21.608Z,143863.78
2019-04-29T19:21:19.293Z,143861.47
2019-04-29T19:26:18.126Z,143867.34
2019-04-29T19:31:17.536Z,143886.13
2019-04-29T19:36:20.178Z,143872.03
2019-04-29T19:41:16.381Z,143873.19
2019-04-29T19:46:21.857Z,143862.63
2019-04-29T19:51:17.850Z,143862.63
2019-04-29T19:56:20.894Z,143873.19
2019-04-29T20:01:18.723Z,143872.03
2019-04-29T20:06:21.433Z,143865.00
2019-04-29T20:11:15.934Z,143869.66
2019-04-29T20:16:42.762Z,143850.89
2019-04-29T20:21:37.988Z,143865.00
2019-04-29T20:26:35.896Z,143868.50
2019-04-29T20:31:37.360Z,143869.66
2019-04-29T20:36:39.456Z,143883.78
2019-04-29T20:41:40.584Z,143856.75
2019-04-29T20:46:40.154Z,143849.73
2019-04-29T20:51:32.219Z,143835.63
2019-04-29T20:56:28.844Z,143840.34
2019-04-29T21:01:25.460Z,143818.05
2019-04-29T21:06:21.795Z,143814.53
2019-04-29T21:11:36.737Z,143799.27
2019-04-29T21:16:34.635Z,143792.23
2019-04-29T21:21:30.559Z,143827.44
2019-04-29T21:26:26.583Z,143806.30
2019-04-29T21:31:22.531Z,143802.78
2019-04-29T21:36:26.565Z,143785.16
2019-04-29T21:41:29.167Z,143813.33
2019-04-29T21:46:29.392Z,143821.56
2019-04-29T21:51:25.520Z,143822.72
2019-04-29T21:56:21.471Z,143818.05
2019-04-29T22:01:18.698Z,143827.44
2019-04-29T22:06:14.826Z,143853.25
2019-04-29T22:11:10.857Z,143852.09
2019-04-29T22:16:07.082Z,143865.00
2019-04-29T22:21:06.593Z,143853.25
2019-04-29T22:26:01.824Z,143862.63
2019-04-29T22:30:57.863Z,143855.59
2019-04-29T22:35:55.475Z,143853.25
2019-04-29T22:40:52.754Z,143860.28
2019-04-29T22:45:48.682Z,143847.38
2019-04-29T22:50:47.397Z,143850.89
2019-04-29T22:55:45.238Z,143835.63
2019-04-29T23:00:41.265Z,143820.41
2019-04-29T23:05:37.896Z,143808.66
2019-04-29T23:10:35.643Z,143803.94
2019-04-29T23:15:31.771Z,143800.44
2019-04-29T23:20:37.208Z,143799.27
2019-04-29T23:25:35.480Z,143796.91
2019-04-29T23:30:31.482Z,143799.27
2019-04-29T23:35:27.459Z,143819.20
2019-04-29T23:40:23.384Z,143822.72
2019-04-29T23:45:21.138Z,143827.44
2019-04-29T23:50:20.078Z,143843.84
2019-04-29T23:55:20.500Z,143839.19
